createdAt,value
2023-02-23T00:00:39.479Z,4.28
2023-02-23T00:03:09.692Z,4.50
2023-02-23T00:05:39.955Z,4.50
2023-02-23T00:08:11.241Z,4.63
2023-02-23T00:10:41.457Z,4.28
2023-02-23T00:13:11.665Z,6.38
2023-02-23T00:15:41.809Z,5.72
2023-02-23T00:18:14.478Z,4.78
2023-02-23T00:20:48.575Z,3.92
2023-02-23T00:23:18.638Z,4.30
2023-02-23T00:25:48.748Z,4.05
2023-02-23T00:28:18.940Z,3.97
2023-02-23T00:30:49.144Z,3.80
2023-02-23T00:33:19.458Z,4.15
2023-02-23T00:35:49.526Z,3.65
2023-02-23T00:38:19.680Z,4.75
2023-02-23T00:40:49.923Z,4.38
2023-02-23T00:43:23.774Z,5.78
2023-02-23T00:45:57.043Z,4.40
2023-02-23T00:48:28.913Z,4.38
2023-02-23T00:51:03.738Z,4.63
2023-02-23T00:53:34.224Z,4.05
2023-02-23T00:56:05.656Z,5.13
2023-02-23T00:58:35.891Z,5.18
2023-02-23T01:01:08.232Z,4.38
2023-02-23T01:03:39.544Z,5.50
2023-02-23T01:06:12.405Z,4.25
2023-02-23T01:08:45.633Z,4.55
2023-02-23T01:11:18.645Z,6.60
2023-02-23T01:13:51.483Z,4.80
2023-02-23T01:16:28.012Z,5.25
2023-02-23T01:19:00.876Z,3.67
2023-02-23T01:21:34.403Z,2.92
2023-02-23T01:27:45.499Z,5.07
2023-02-23T01:30:15.874Z,3.85
2023-02-23T01:32:46.017Z,3.55
2023-02-23T01:35:16.206Z,6.18
2023-02-23T01:37:46.349Z,4.25
2023-02-23T01:40:31.537Z,5.07
2023-02-23T01:43:16.190Z,4.25
2023-02-23T01:45:46.332Z,4.05
2023-02-23T01:48:26.820Z,3.63
2023-02-23T01:51:06.913Z,3.70
2023-02-23T01:53:42.177Z,3.95
2023-02-23T01:56:17.768Z,3.30
2023-02-23T01:58:54.882Z,4.25
2023-02-23T02:03:58.539Z,2.70
2023-02-23T02:06:29.910Z,3.53
2023-02-23T02:09:07.456Z,2.80
2023-02-23T02:11:39.099Z,3.13
2023-02-23T02:14:15.704Z,3.40
2023-02-23T02:17:16.387Z,4.47
2023-02-23T02:20:29.124Z,4.75
2023-02-23T02:23:27.558Z,2.55
2023-02-23T02:26:10.073Z,3.83
2023-02-23T02:28:56.393Z,3.42
2023-02-23T02:31:46.919Z,2.80
2023-02-23T02:34:18.362Z,3.28
2023-02-23T02:36:58.156Z,3.42
2023-02-23T02:39:53.706Z,2.55
2023-02-23T02:42:34.229Z,2.67
2023-02-23T02:45:45.123Z,2.67
2023-02-23T02:48:36.509Z,3.00
2023-02-23T02:51:31.654Z,2.28
2023-02-23T02:54:07.540Z,2.80
2023-02-23T02:56:40.674Z,3.63
2023-02-23T02:59:33.586Z,3.55
2023-02-23T03:02:24.690Z,2.70
2023-02-23T03:05:13.469Z,2.92
2023-02-23T03:08:19.884Z,4.47
2023-02-23T03:11:28.523Z,2.70
2023-02-23T03:14:35.732Z,3.80
2023-02-23T03:17:49.294Z,2.67
2023-02-23T03:20:48.567Z,2.53
2023-02-23T03:23:39.919Z,3.15
2023-02-23T03:26:32.874Z,2.88
2023-02-23T03:29:44.716Z,2.33
2023-02-23T03:32:57.910Z,3.70
2023-02-23T03:36:14.521Z,2.53
2023-02-23T03:39:38.401Z,2.92
2023-02-23T03:42:33.833Z,3.65
2023-02-23T03:45:31.684Z,2.30
2023-02-23T03:48:24.451Z,2.42
2023-02-23T03:51:15.704Z,2.42
2023-02-23T03:54:12.570Z,2.63
2023-02-23T03:57:05.599Z,2.45
2023-02-23T04:00:02.625Z,1.90
2023-02-23T04:02:55.163Z,2.63
2023-02-23T04:05:45.321Z,3.00
2023-02-23T04:08:37.472Z,4.70
2023-02-23T04:11:40.236Z,4.13
2023-02-23T04:14:18.696Z,5.20
2023-02-23T04:16:49.480Z,6.22
2023-02-23T04:19:19.926Z,3.53
2023-02-23T04:21:50.163Z,3.80
2023-02-23T04:24:20.446Z,2.50
2023-02-23T04:26:50.585Z,3.28
2023-02-23T04:29:20.820Z,4.47
2023-02-23T04:31:51.000Z,3.20
2023-02-23T04:34:21.240Z,2.97
2023-02-23T04:36:51.548Z,3.88
2023-02-23T04:39:21.771Z,3.05
2023-02-23T04:41:51.872Z,2.55
2023-02-23T04:44:22.107Z,4.40
2023-02-23T04:46:52.242Z,3.03
2023-02-23T04:49:22.751Z,3.95
2023-02-23T04:51:52.877Z,3.65
2023-02-23T04:54:22.985Z,3.90
2023-02-23T04:56:53.150Z,3.83
2023-02-23T04:59:23.311Z,4.47
2023-02-23T05:01:53.561Z,2.40
2023-02-23T05:04:23.719Z,4.20
2023-02-23T05:06:53.997Z,4.57
2023-02-23T05:09:24.240Z,2.70
2023-02-23T05:11:54.607Z,4.45
2023-02-23T05:14:24.915Z,5.35
2023-02-23T05:16:55.454Z,3.33
2023-02-23T05:19:26.477Z,3.42
2023-02-23T05:21:56.774Z,4.53
2023-02-23T05:24:26.948Z,3.42
2023-02-23T05:26:57.140Z,3.42
2023-02-23T05:29:27.320Z,3.55
2023-02-23T05:31:57.524Z,3.10
2023-02-23T05:34:27.712Z,4.82
2023-02-23T05:36:57.921Z,4.28
2023-02-23T05:39:28.036Z,6.75
2023-02-23T05:41:58.148Z,5.20
2023-02-23T05:44:28.337Z,5.15
2023-02-23T05:46:58.516Z,5.13
2023-02-23T05:49:29.118Z,3.97
2023-02-23T05:51:59.241Z,4.32
2023-02-23T05:54:29.311Z,5.10
2023-02-23T05:57:01.710Z,4.22
2023-02-23T05:59:32.506Z,4.20
2023-02-23T06:02:04.990Z,5.00
2023-02-23T06:04:35.508Z,3.67
2023-02-23T06:07:05.749Z,3.35
2023-02-23T06:09:36.436Z,6.07
2023-02-23T06:12:06.829Z,4.00
2023-02-23T06:14:36.975Z,7.53
2023-02-23T06:17:08.050Z,4.78
2023-02-23T06:19:38.235Z,5.43
2023-02-23T06:22:08.441Z,7.72
2023-02-23T06:24:38.642Z,6.10
2023-02-23T06:27:08.771Z,6.28
2023-02-23T06:29:38.979Z,4.63
2023-02-23T06:32:09.185Z,5.15
2023-02-23T06:34:39.535Z,5.35
2023-02-23T06:37:09.913Z,4.97
2023-02-23T06:39:40.123Z,6.50
2023-02-23T06:42:10.452Z,6.97
2023-02-23T06:44:40.668Z,6.20
2023-02-23T06:47:11.526Z,6.80
2023-02-23T06:49:41.715Z,4.95
2023-02-23T06:52:13.762Z,8.23
2023-02-23T06:54:44.894Z,5.35
2023-02-23T06:57:15.101Z,7.78
2023-02-23T06:59:45.285Z,7.38
2023-02-23T07:02:15.870Z,5.82
2023-02-23T07:04:46.115Z,9.43
2023-02-23T07:07:16.225Z,6.53
2023-02-23T07:09:46.369Z,6.75
2023-02-23T07:12:16.568Z,6.53
2023-02-23T07:14:47.066Z,5.25
2023-02-23T07:17:18.002Z,8.73
2023-02-23T07:19:48.297Z,7.00
2023-02-23T07:22:18.586Z,5.35
2023-02-23T07:24:48.778Z,7.85
2023-02-23T07:27:18.951Z,10.77
2023-02-23T07:29:49.187Z,8.07
2023-02-23T07:32:19.578Z,7.20
2023-02-23T07:34:49.792Z,7.07
2023-02-23T07:37:19.958Z,11.80
2023-02-23T07:39:50.210Z,8.80
2023-02-23T07:42:20.473Z,6.35
2023-02-23T07:44:50.689Z,6.43
2023-02-23T07:47:20.876Z,6.22
2023-02-23T07:49:51.004Z,6.97
2023-02-23T07:52:21.194Z,6.38
2023-02-23T07:54:51.502Z,8.70
2023-02-23T07:57:24.571Z,10.07
2023-02-23T07:59:55.355Z,7.45
2023-02-23T08:02:25.926Z,8.35
2023-02-23T08:04:56.118Z,7.65
2023-02-23T08:07:26.292Z,5.95
2023-02-23T08:09:56.596Z,8.38
2023-02-23T08:12:27.577Z,6.20
2023-02-23T08:14:57.749Z,7.82
2023-02-23T08:17:27.981Z,6.93
2023-02-23T08:19:58.070Z,6.50
2023-02-23T08:22:29.372Z,8.82
2023-02-23T08:25:00.617Z,7.45
2023-02-23T08:27:31.712Z,7.47
2023-02-23T08:30:04.228Z,10.68
2023-02-23T08:32:37.910Z,9.25
2023-02-23T08:35:10.035Z,6.95
2023-02-23T08:37:42.005Z,13.35
2023-02-23T08:40:15.809Z,10.07
2023-02-23T08:42:46.215Z,7.32
2023-02-23T08:45:16.748Z,10.48
2023-02-23T08:47:47.365Z,9.00
2023-02-23T08:50:17.711Z,7.88
2023-02-23T08:52:48.059Z,9.27
2023-02-23T08:55:19.122Z,6.78
2023-02-23T08:57:49.474Z,7.63
2023-02-23T09:00:20.419Z,7.45
2023-02-23T09:02:50.650Z,7.18
2023-02-23T09:05:20.963Z,8.55
2023-02-23T09:07:51.157Z,13.48
2023-02-23T09:10:24.225Z,9.73
2023-02-23T09:12:54.763Z,7.57
2023-02-23T09:15:24.923Z,8.85
2023-02-23T09:17:55.109Z,7.00
2023-02-23T09:20:27.133Z,5.28
2023-02-23T09:22:57.382Z,7.40
2023-02-23T09:25:29.444Z,7.97
2023-02-23T09:28:02.329Z,6.13
2023-02-23T09:30:32.859Z,9.98
2023-02-23T09:33:03.004Z,10.93
2023-02-23T09:35:34.623Z,6.85
2023-02-23T09:38:07.649Z,10.18
2023-02-23T09:40:44.702Z,8.98
2023-02-23T09:43:26.086Z,9.40
2023-02-23T09:45:59.599Z,10.35
2023-02-23T09:48:30.357Z,9.30
2023-02-23T09:51:01.500Z,7.20
2023-02-23T09:53:37.592Z,10.25
2023-02-23T09:56:17.737Z,8.70
2023-02-23T09:58:48.059Z,8.48
2023-02-23T10:01:38.507Z,9.82
2023-02-23T10:04:38.668Z,7.90
2023-02-23T10:07:26.421Z,10.38
2023-02-23T10:10:06.896Z,9.05
2023-02-23T10:12:43.223Z,9.65
2023-02-23T10:15:25.544Z,7.40
2023-02-23T10:18:15.320Z,9.30
2023-02-23T10:21:06.189Z,6.20
2023-02-23T10:24:01.075Z,7.80
2023-02-23T10:26:56.738Z,11.32
2023-02-23T10:29:37.750Z,9.05
2023-02-23T10:32:17.069Z,10.18
2023-02-23T10:34:51.878Z,9.45
2023-02-23T10:37:22.994Z,9.15
2023-02-23T10:39:53.728Z,10.50
2023-02-23T10:42:32.010Z,10.50
2023-02-23T10:45:02.210Z,7.68
2023-02-23T10:47:35.024Z,8.05
2023-02-23T10:50:06.688Z,9.05
2023-02-23T10:52:41.942Z,9.48
2023-02-23T10:55:32.605Z,7.95
2023-02-23T10:58:19.316Z,8.50
2023-02-23T11:01:01.711Z,8.43
2023-02-23T11:03:42.877Z,7.75
2023-02-23T11:06:28.925Z,7.72
2023-02-23T11:08:59.304Z,11.55
2023-02-23T11:11:29.762Z,9.25
2023-02-23T11:14:15.944Z,8.15
2023-02-23T11:16:46.318Z,7.40
2023-02-23T11:19:38.125Z,8.93
2023-02-23T11:22:24.882Z,7.75
2023-02-23T11:27:31.099Z,8.55
2023-02-23T11:30:06.368Z,9.88
2023-02-23T11:32:42.695Z,9.50
2023-02-23T11:35:22.203Z,8.98
2023-02-23T11:37:52.426Z,8.88
2023-02-23T11:40:28.976Z,12.02
2023-02-23T11:43:10.020Z,12.00
2023-02-23T11:45:47.558Z,8.27
2023-02-23T11:48:31.532Z,10.93
2023-02-23T11:51:02.706Z,9.02
2023-02-23T11:53:44.484Z,9.98
2023-02-23T11:56:21.040Z,9.48
2023-02-23T12:01:44.280Z,10.48
2023-02-23T12:04:30.973Z,7.82
2023-02-23T12:07:34.995Z,5.95
2023-02-23T12:10:24.981Z,7.35
2023-02-23T12:13:08.621Z,8.88
2023-02-23T12:15:52.077Z,8.00
2023-02-23T12:18:40.881Z,7.93
2023-02-23T12:21:25.396Z,8.15
2023-02-23T12:24:10.270Z,10.10
2023-02-23T12:27:15.620Z,6.93
2023-02-23T12:30:02.987Z,7.65
2023-02-23T12:32:39.156Z,11.15
2023-02-23T12:35:15.356Z,9.43
2023-02-23T12:37:53.248Z,10.13
2023-02-23T12:40:30.628Z,8.75
2023-02-23T12:43:32.994Z,8.15
2023-02-23T12:46:18.005Z,9.50
2023-02-23T12:49:00.672Z,5.85
2023-02-23T12:51:35.643Z,6.18
2023-02-23T12:54:06.338Z,6.05
2023-02-23T12:56:56.474Z,7.18
2023-02-23T12:59:35.487Z,6.55
2023-02-23T13:02:27.178Z,6.55
2023-02-23T13:05:13.209Z,6.60
2023-02-23T13:08:04.778Z,7.75
2023-02-23T13:10:58.754Z,10.40
2023-02-23T13:13:34.674Z,6.22
2023-02-23T13:16:31.180Z,7.03
2023-02-23T13:19:25.355Z,8.25
2023-02-23T13:22:03.673Z,6.20
2023-02-23T13:24:40.510Z,6.63
2023-02-23T13:27:28.192Z,5.90
2023-02-23T13:29:59.409Z,4.95
2023-02-23T13:32:33.031Z,5.53
2023-02-23T13:35:07.520Z,6.35
2023-02-23T13:37:46.500Z,6.85
2023-02-23T13:40:32.876Z,6.60
2023-02-23T13:43:16.613Z,6.28
2023-02-23T13:46:17.275Z,8.30
2023-02-23T13:49:02.594Z,7.80
2023-02-23T13:51:35.904Z,6.57
2023-02-23T13:54:24.462Z,7.85
2023-02-23T13:57:16.948Z,7.07
2023-02-23T13:59:47.390Z,7.28
2023-02-23T14:02:47.326Z,6.20
2023-02-23T14:05:22.870Z,7.53
2023-02-23T14:07:56.255Z,6.80
2023-02-23T14:10:29.929Z,6.45
2023-02-23T14:13:18.152Z,6.35
2023-02-23T14:15:53.755Z,7.72
2023-02-23T14:18:26.749Z,7.32
2023-02-23T14:21:16.912Z,6.22
2023-02-23T14:23:54.104Z,6.95
2023-02-23T14:27:09.657Z,6.28
2023-02-23T14:29:43.955Z,8.98
2023-02-23T14:32:14.146Z,5.38
2023-02-23T14:35:02.747Z,7.93
2023-02-23T14:37:40.411Z,7.30
2023-02-23T14:40:15.347Z,8.23
2023-02-23T14:42:57.433Z,9.43
2023-02-23T14:45:38.325Z,8.05
2023-02-23T14:48:17.352Z,8.63
2023-02-23T14:50:47.573Z,8.13
2023-02-23T14:53:24.566Z,11.73
2023-02-23T14:58:30.738Z,12.80
2023-02-23T15:01:01.149Z,16.83
2023-02-23T15:03:31.458Z,11.70
2023-02-23T15:06:01.757Z,13.48
2023-02-23T15:08:35.541Z,13.73
2023-02-23T15:11:13.734Z,10.45
2023-02-23T15:13:50.678Z,8.98
2023-02-23T15:19:24.206Z,8.88
2023-02-23T15:21:56.617Z,12.18
2023-02-23T15:24:33.348Z,9.07
2023-02-23T15:27:03.898Z,9.88
2023-02-23T15:29:34.106Z,10.73
2023-02-23T15:32:20.213Z,12.13
2023-02-23T15:35:03.696Z,11.00
2023-02-23T15:37:47.338Z,7.97
2023-02-23T15:40:26.412Z,7.93
2023-02-23T15:43:01.397Z,8.60
2023-02-23T15:45:54.842Z,10.68
2023-02-23T15:48:30.414Z,8.55
2023-02-23T15:51:00.694Z,8.65
2023-02-23T15:53:34.766Z,11.90
2023-02-23T15:56:14.585Z,11.27
2023-02-23T15:58:56.362Z,13.93
2023-02-23T16:01:31.273Z,8.70
2023-02-23T16:04:14.240Z,8.68
2023-02-23T16:07:07.305Z,8.45
2023-02-23T16:10:18.574Z,10.20
2023-02-23T16:12:52.505Z,10.75
2023-02-23T16:15:26.861Z,8.15
2023-02-23T16:18:02.503Z,8.02
2023-02-23T16:20:46.251Z,11.85
2023-02-23T16:23:37.233Z,9.32
2023-02-23T16:26:17.106Z,8.68
2023-02-23T16:28:47.559Z,8.10
2023-02-23T16:31:25.985Z,8.95
2023-02-23T16:34:00.210Z,12.43
2023-02-23T16:36:40.376Z,9.48
2023-02-23T16:39:17.611Z,8.38
2023-02-23T16:41:47.778Z,9.23
2023-02-23T16:44:21.704Z,9.38
2023-02-23T16:46:59.200Z,7.63
2023-02-23T16:49:30.276Z,8.20
2023-02-23T16:52:02.128Z,8.50
2023-02-23T16:54:34.632Z,7.50
2023-02-23T16:57:14.233Z,8.50
2023-02-23T16:59:44.392Z,8.65
2023-02-23T17:02:14.571Z,10.45
2023-02-23T17:04:51.687Z,9.35
2023-02-23T17:07:24.080Z,10.80
2023-02-23T17:09:54.318Z,13.80
2023-02-23T17:12:24.373Z,13.57
2023-02-23T17:14:54.679Z,9.88
2023-02-23T17:17:24.910Z,11.40
2023-02-23T17:19:55.374Z,12.68
2023-02-23T17:22:25.550Z,16.42
2023-02-23T17:24:55.763Z,13.40
2023-02-23T17:27:25.959Z,12.40
2023-02-23T17:29:56.063Z,10.07
2023-02-23T17:32:26.294Z,11.40
2023-02-23T17:34:56.696Z,9.68
2023-02-23T17:37:26.840Z,9.82
2023-02-23T17:39:57.011Z,12.35
2023-02-23T17:42:34.149Z,11.35
2023-02-23T17:45:06.771Z,13.20
2023-02-23T17:47:40.113Z,11.05
2023-02-23T17:50:11.898Z,12.00
2023-02-23T17:52:42.101Z,10.57
2023-02-23T17:55:12.220Z,14.90
2023-02-23T17:57:42.444Z,10.35
2023-02-23T18:00:15.316Z,14.60
2023-02-23T18:02:46.158Z,11.18
2023-02-23T18:05:16.323Z,12.20
2023-02-23T18:07:48.435Z,10.52
2023-02-23T18:10:19.097Z,9.82
2023-02-23T18:12:49.293Z,8.38
2023-02-23T18:15:21.474Z,10.52
2023-02-23T18:17:54.749Z,13.77
2023-02-23T18:20:25.132Z,8.93
2023-02-23T18:22:55.430Z,9.20
2023-02-23T18:25:28.793Z,8.88
2023-02-23T18:28:00.197Z,8.65
2023-02-23T18:30:30.367Z,7.63
2023-02-23T18:33:01.033Z,12.55
2023-02-23T18:35:39.095Z,11.02
2023-02-23T18:38:11.786Z,10.98
2023-02-23T18:40:42.578Z,11.05
2023-02-23T18:43:13.545Z,10.90
2023-02-23T18:45:43.707Z,11.98
2023-02-23T18:48:14.557Z,10.88
2023-02-23T18:50:44.717Z,11.65
2023-02-23T18:53:14.869Z,12.63
2023-02-23T18:55:45.722Z,12.15
2023-02-23T18:58:15.837Z,11.32
2023-02-23T19:00:46.438Z,9.90
2023-02-23T19:03:16.801Z,14.57
2023-02-23T19:05:53.064Z,12.73
2023-02-23T19:08:23.271Z,9.55
2023-02-23T19:10:53.437Z,12.93
2023-02-23T19:13:23.670Z,12.63
2023-02-23T19:15:54.079Z,10.35
2023-02-23T19:18:25.805Z,9.82
2023-02-23T19:20:56.009Z,13.73
2023-02-23T19:23:26.107Z,12.27
2023-02-23T19:25:56.435Z,10.73
2023-02-23T19:28:27.591Z,11.10
2023-02-23T19:31:09.691Z,12.35
2023-02-23T19:33:40.269Z,13.98
2023-02-23T19:36:17.864Z,16.52
2023-02-23T19:38:48.983Z,12.48
2023-02-23T19:41:21.852Z,12.32
2023-02-23T19:43:52.483Z,13.75
2023-02-23T19:46:25.712Z,13.32
2023-02-23T19:48:56.488Z,10.93
2023-02-23T19:51:27.018Z,14.18
2023-02-23T19:53:58.130Z,14.43
2023-02-23T19:56:29.247Z,12.85
2023-02-23T19:59:01.342Z,16.25
2023-02-23T20:01:32.009Z,12.30
2023-02-23T20:04:02.461Z,10.25
2023-02-23T20:06:38.829Z,11.95
2023-02-23T20:09:09.735Z,11.57
2023-02-23T20:11:40.864Z,14.38
2023-02-23T20:14:12.686Z,13.88
2023-02-23T20:16:42.998Z,18.83
2023-02-23T20:19:13.241Z,12.80
2023-02-23T20:21:43.782Z,11.82
2023-02-23T20:24:14.149Z,20.50
2023-02-23T20:26:44.964Z,12.75
2023-02-23T20:29:18.099Z,15.93
2023-02-23T20:31:51.749Z,14.20
2023-02-23T20:34:24.542Z,14.48
2023-02-23T20:36:55.853Z,12.20
2023-02-23T20:39:27.279Z,11.05
2023-02-23T20:41:57.439Z,11.60
2023-02-23T20:44:29.293Z,10.25
2023-02-23T20:47:00.963Z,15.05
2023-02-23T20:49:31.570Z,14.00
2023-02-23T20:52:02.084Z,10.65
2023-02-23T20:54:32.254Z,10.40
2023-02-23T20:57:07.940Z,10.05
2023-02-23T20:59:38.180Z,11.82
2023-02-23T21:02:09.658Z,11.95
2023-02-23T21:04:41.119Z,14.98
2023-02-23T21:07:13.575Z,12.35
2023-02-23T21:09:43.788Z,12.32
2023-02-23T21:12:14.157Z,14.95
2023-02-23T21:14:44.403Z,18.20
2023-02-23T21:17:14.565Z,11.93
2023-02-23T21:19:45.188Z,12.45
2023-02-23T21:22:17.499Z,11.07
2023-02-23T21:24:48.035Z,12.07
2023-02-23T21:27:18.202Z,11.52
2023-02-23T21:29:48.400Z,12.80
2023-02-23T21:32:20.059Z,12.27
2023-02-23T21:34:50.538Z,11.93
2023-02-23T21:37:20.682Z,11.32
2023-02-23T21:39:51.199Z,11.15
2023-02-23T21:42:23.641Z,14.25
2023-02-23T21:44:54.178Z,12.00
2023-02-23T21:47:24.342Z,13.45
2023-02-23T21:49:55.169Z,13.40
2023-02-23T21:52:25.449Z,13.05
2023-02-23T21:54:55.687Z,15.52
2023-02-23T21:57:28.425Z,13.73
2023-02-23T21:59:58.521Z,13.82
2023-02-23T22:02:30.760Z,12.88
2023-02-23T22:05:00.990Z,12.00
2023-02-23T22:07:32.650Z,12.45
2023-02-23T22:10:04.237Z,13.25
2023-02-23T22:12:34.433Z,11.77
2023-02-23T22:15:07.787Z,12.15
2023-02-23T22:17:38.809Z,12.73
2023-02-23T22:20:10.363Z,12.98
2023-02-23T22:22:40.473Z,14.88
2023-02-23T22:25:10.863Z,15.77
2023-02-23T22:27:42.916Z,23.80
2023-02-23T22:30:15.500Z,16.98
2023-02-23T22:32:45.816Z,13.30
2023-02-23T22:35:16.378Z,13.65
2023-02-23T22:37:46.512Z,17.92
2023-02-23T22:40:17.246Z,15.90
2023-02-23T22:42:50.341Z,16.63
2023-02-23T22:45:20.756Z,14.40
2023-02-23T22:47:50.908Z,15.52
2023-02-23T22:50:21.079Z,18.88
2023-02-23T22:52:51.202Z,19.50
2023-02-23T22:55:21.336Z,15.75
2023-02-23T22:57:51.484Z,14.50
2023-02-23T23:00:22.191Z,13.55
2023-02-23T23:02:52.306Z,15.75
2023-02-23T23:05:22.521Z,13.88
2023-02-23T23:07:52.671Z,15.00
2023-02-23T23:10:24.132Z,16.15
2023-02-23T23:12:54.382Z,17.60
2023-02-23T23:15:24.531Z,15.23
2023-02-23T23:17:54.622Z,15.18
2023-02-23T23:20:25.984Z,14.90
2023-02-23T23:22:57.626Z,18.92
2023-02-23T23:25:29.744Z,13.77
2023-02-23T23:27:59.949Z,13.73
2023-02-23T23:30:30.193Z,12.43
2023-02-23T23:33:01.874Z,18.02
2023-02-23T23:35:34.521Z,15.10
2023-02-23T23:38:06.334Z,19.02
2023-02-23T23:40:37.716Z,17.40
2023-02-23T23:43:07.965Z,13.07
2023-02-23T23:45:40.477Z,17.75
2023-02-23T23:48:11.511Z,14.57
2023-02-23T23:50:42.448Z,16.02
2023-02-23T23:53:12.636Z,16.60
2023-02-23T23:55:42.939Z,13.93
2023-02-23T23:58:14.085Z,22.13
